KGNA

The Bay of Grand Marais Airport

Grand Marais, Minnesota, USA
METAR KGNA 150056Z AUTO 25003KT 17/14 A2990 RMK AO1 SLP119 T01720144
Observed Flight Rules
Aug-15 @ 00:56 UTC (10 minutes ago)
Wind
250° at 3 knots
Temperatures Readings
Current 17°C / 63°F
Dewpoint 14°C / 57°F
Humidity 83%
Altimeter 29.9" Hg
Pressure 1011.9 hPa
Elevation 185
METAR KGNA 150056Z AUTO 25003KT 17/14 A2990 RMK AO1 SLP119 T01720144
Observed Flight Rules
Aug-15 @ 00:56 UTC
(10 minutes ago)
Wind
250° at 3 knots
Temperature Dewpoint
17°C / 63°F 14°C / 57°F
Humidity Altimeter Pressure
83% 29.9" Hg 1011.9 hPa